createdAt,value
2018-01-23T00:00:19.112Z,2.1
2018-01-23T00:15:07.449Z,2
2018-01-23T00:30:08.625Z,2.2
2018-01-23T00:45:03.676Z,2.2
2018-01-23T01:00:11.140Z,2.2
2018-01-23T01:15:53.492Z,2.4
2018-01-23T01:30:09.802Z,2.3
2018-01-23T01:46:42.422Z,2.6
2018-01-23T02:00:13.760Z,2.5
2018-01-23T02:15:04.331Z,2.5
2018-01-23T02:30:02.910Z,2.4
2018-01-23T02:45:06.550Z,2.4
2018-01-23T03:00:03.306Z,2.6
2018-01-23T03:15:04.142Z,2.4
2018-01-23T03:30:02.811Z,2.2
2018-01-23T03:46:07.616Z,2.1
2018-01-23T04:00:07.914Z,2.1
2018-01-23T04:15:05.061Z,2.1
2018-01-23T04:30:05.668Z,2
2018-01-23T04:45:10.057Z,1.8
2018-01-23T05:00:58.791Z,1.8
2018-01-23T05:15:14.540Z,1.8
2018-01-23T05:30:13.531Z,2
2018-01-23T05:45:49.104Z,2.1
2018-01-23T06:00:02.504Z,2.1
2018-01-23T06:15:15.396Z,2.2
2018-01-23T06:30:03.131Z,2.3
2018-01-23T06:45:02.729Z,2.2
2018-01-23T07:00:14.805Z,2.4
2018-01-23T07:15:03.546Z,2.2
2018-01-23T07:30:03.913Z,2.4
2018-01-23T07:45:03.740Z,2.4
2018-01-23T08:00:04.007Z,2.3
2018-01-23T08:15:03.173Z,2.2
2018-01-23T08:30:02.551Z,2.4
2018-01-23T08:45:02.970Z,2.6
2018-01-23T09:00:12.093Z,2.6
2018-01-23T09:15:14.199Z,2.6
2018-01-23T09:30:02.661Z,2.8
2018-01-23T09:45:02.928Z,2.8
2018-01-23T10:00:03.533Z,2.9
2018-01-23T10:15:03.008Z,3.1
2018-01-23T10:30:12.868Z,3.2
2018-01-23T10:45:03.046Z,3.2
2018-01-23T11:00:02.484Z,3.4
2018-01-23T11:15:02.815Z,3.6
2018-01-23T11:30:03.256Z,3.7
2018-01-23T11:45:02.811Z,3.9
2018-01-23T12:00:03.034Z,4.1
2018-01-23T12:15:02.276Z,4.2
2018-01-23T12:30:02.587Z,4.1
2018-01-23T12:45:02.856Z,3.9
2018-01-23T13:00:03.096Z,3.9
2018-01-23T13:15:02.400Z,4
2018-01-23T13:30:02.697Z,4.1
2018-01-23T13:45:02.931Z,3.9
2018-01-23T14:00:03.201Z,3.9
2018-01-23T14:15:02.473Z,3.9
2018-01-23T14:30:02.860Z,3.9
2018-01-23T14:45:03.170Z,3.8
2018-01-23T15:00:02.383Z,3.9
2018-01-23T15:15:02.672Z,3.9
2018-01-23T15:30:03.119Z,3.5
2018-01-23T15:45:02.395Z,3.6
2018-01-23T16:00:02.628Z,3.4
2018-01-23T16:15:02.894Z,3.4
2018-01-23T16:30:02.208Z,3.2
2018-01-23T16:45:02.416Z,3
2018-01-23T17:00:02.609Z,2.8
2018-01-23T17:15:02.860Z,2.8
2018-01-23T17:30:02.190Z,2.8
2018-01-23T17:45:02.424Z,2.8
2018-01-23T18:00:02.661Z,2.6
2018-01-23T18:15:02.912Z,2.7
2018-01-23T18:30:02.231Z,2.6
2018-01-23T18:45:02.495Z,2.6
2018-01-23T19:00:02.789Z,2.6
2018-01-23T19:15:03.016Z,2.4
2018-01-23T19:30:02.427Z,2.4
2018-01-23T19:45:02.677Z,2.4
2018-01-23T20:00:02.892Z,2.3
2018-01-23T20:15:03.245Z,2.4
2018-01-23T20:30:02.600Z,2.4
2018-01-23T20:45:02.923Z,2.3
2018-01-23T21:00:03.181Z,2.3
2018-01-23T21:15:02.481Z,2.3
2018-01-23T21:30:02.885Z,2.3
2018-01-23T21:45:03.255Z,2.3
2018-01-23T22:00:02.512Z,2.2
2018-01-23T22:15:02.764Z,2.3
2018-01-23T22:30:03.152Z,2.3
2018-01-23T22:45:02.441Z,2.2
2018-01-23T23:00:02.691Z,2.2
2018-01-23T23:15:02.912Z,2.2
2018-01-23T23:30:02.285Z,2.1
2018-01-23T23:45:02.527Z,2.2
